TimeCDT,TemperatureF,Dew PointF,Humidity,Sea Level PressureIn,VisibilityMPH,Wind Direction,Wind SpeedMPH,Gust SpeedMPH,PrecipitationIn,Events,Conditions,WindDirDegrees,DateUTC
12:40 AM,46.4,44.6,93,29.89,5.0,East,10.4,-,0.00,,Light Drizzle,90,2013-03-23 05:40:00
12:47 AM,46.4,44.6,93,29.89,5.0,East,11.5,-,0.00,,Overcast,90,2013-03-23 05:47:00
12:54 AM,46.9,44.1,90,29.88,4.0,ENE,11.5,-,0.00,,Overcast,70,2013-03-23 05:54:00
12:59 AM,46.4,44.6,93,29.89,5.0,ENE,9.2,-,N/A,,Overcast,60,2013-03-23 05:59:00
1:13 AM,46.4,44.6,93,29.90,6.0,ENE,6.9,-,N/A,,Overcast,70,2013-03-23 06:13:00
1:19 AM,46.4,44.6,93,29.91,6.0,East,4.6,-,N/A,,Overcast,80,2013-03-23 06:19:00
1:43 AM,46.4,44.6,93,29.92,6.0,NE,5.8,-,N/A,,Overcast,40,2013-03-23 06:43:00
1:48 AM,46.4,44.6,93,29.92,6.0,NNE,5.8,-,N/A,,Overcast,30,2013-03-23 06:48:00
1:54 AM,46.9,44.1,90,29.92,6.0,NNE,5.8,-,N/A,,Overcast,30,2013-03-23 06:54:00
2:07 AM,46.4,44.6,93,29.91,5.0,NE,5.8,-,N/A,,Overcast,50,2013-03-23 07:07:00
2:43 AM,46.4,44.6,93,29.88,5.0,NE,10.4,-,0.00,,Light Drizzle,50,2013-03-23 07:43:00
2:54 AM,46.0,44.1,93,29.88,3.0,ENE,10.4,-,0.00,,Light Drizzle,60,2013-03-23 07:54:00
3:54 AM,46.9,44.1,90,29.86,5.0,East,9.2,-,0.00,,Overcast,100,2013-03-23 08:54:00
4:54 AM,46.9,44.1,90,29.86,4.0,ENE,6.9,-,N/A,,Overcast,60,2013-03-23 09:54:00
5:23 AM,46.4,44.6,93,29.87,6.0,East,5.8,-,N/A,,Overcast,90,2013-03-23 10:23:00
5:44 AM,46.4,44.6,93,29.87,6.0,NE,5.8,-,N/A,,Overcast,50,2013-03-23 10:44:00
5:54 AM,46.4,44.6,93,29.88,6.0,NE,5.8,-,N/A,,Overcast,50,2013-03-23 10:54:00
6:54 AM,46.9,43.0,86,29.88,5.0,NE,9.2,-,N/A,,Overcast,50,2013-03-23 11:54:00
7:54 AM,46.9,43.0,86,29.91,8.0,NE,9.2,-,N/A,,Overcast,50,2013-03-23 12:54:00
7:57 AM,46.4,42.8,87,29.91,8.0,NE,9.2,-,N/A,,Overcast,50,2013-03-23 12:57:00
8:33 AM,46.4,42.8,87,29.90,8.0,East,8.1,-,N/A,,Overcast,80,2013-03-23 13:33:00
8:54 AM,48.0,43.0,83,29.89,8.0,ENE,10.4,-,N/A,,Overcast,70,2013-03-23 13:54:00
9:40 AM,48.2,42.8,82,29.91,10.0,NE,6.9,-,N/A,,Overcast,50,2013-03-23 14:40:00
9:54 AM,48.9,43.0,80,29.90,10.0,ENE,11.5,-,N/A,,Overcast,70,2013-03-23 14:54:00
10:54 AM,50.0,44.1,80,29.89,10.0,ENE,10.4,-,N/A,,Overcast,70,2013-03-23 15:54:00
11:35 AM,51.8,44.6,76,29.89,10.0,ENE,10.4,-,N/A,,Overcast,70,2013-03-23 16:35:00
11:54 AM,51.1,44.1,77,29.90,10.0,ENE,8.1,-,N/A,,Overcast,70,2013-03-23 16:54:00
12:54 PM,51.1,45.0,80,29.88,10.0,East,9.2,-,N/A,,Overcast,100,2013-03-23 17:54:00
1:46 PM,51.8,46.4,82,29.83,10.0,East,11.5,-,0.00,Rain,Light Rain,90,2013-03-23 18:46:00
1:54 PM,52.0,46.0,80,29.83,10.0,East,10.4,-,0.00,Rain,Light Rain,90,2013-03-23 18:54:00
2:42 PM,51.8,46.4,82,29.84,10.0,East,5.8,-,0.00,,Overcast,80,2013-03-23 19:42:00
2:54 PM,52.0,46.0,80,29.83,10.0,East,11.5,-,0.00,,Overcast,100,2013-03-23 19:54:00
3:54 PM,55.0,46.0,72,29.77,10.0,East,17.3,24.2,0.00,,Mostly Cloudy,80,2013-03-23 20:54:00
4:54 PM,55.0,46.9,74,29.73,10.0,East,16.1,-,N/A,,Overcast,90,2013-03-23 21:54:00
5:54 PM,54.0,48.0,80,29.73,10.0,ENE,11.5,-,0.00,,Overcast,70,2013-03-23 22:54:00
6:54 PM,54.0,48.0,80,29.70,10.0,East,11.5,-,N/A,,Overcast,80,2013-03-23 23:54:00
7:54 PM,54.0,48.0,80,29.75,10.0,SE,3.5,-,0.01,Rain,Rain,130,2013-03-24 00:54:00
8:54 PM,53.1,48.9,86,29.74,7.0,SE,5.8,-,0.05,Rain,Rain,130,2013-03-24 01:54:00
9:54 PM,52.0,50.0,93,29.72,7.0,ENE,3.5,-,0.06,Rain,Light Rain,60,2013-03-24 02:54:00
10:29 PM,51.8,48.2,88,29.70,4.0,ENE,9.2,-,0.10,Rain,Heavy Rain,70,2013-03-24 03:29:00
10:54 PM,52.0,50.0,93,29.71,6.0,North,5.8,-,0.13,Rain,Light Rain,360,2013-03-24 03:54:00
11:02 PM,51.8,50.0,94,29.72,6.0,NW,4.6,-,0.01,Rain,Rain,320,2013-03-24 04:02:00
11:54 PM,52.0,50.0,93,29.69,5.0,East,5.8,-,0.07,Rain,Rain,80,2013-03-24 04:54:00